createdAt,value
2023-01-06T00:00:07.859Z,25.53
2023-01-06T00:01:07.848Z,25.51
2023-01-06T00:02:07.913Z,25.57
2023-01-06T00:03:07.828Z,25.54
2023-01-06T00:04:07.825Z,25.54
2023-01-06T00:05:07.836Z,25.53
2023-01-06T00:06:07.805Z,25.53
2023-01-06T00:07:07.841Z,25.53
2023-01-06T00:08:07.790Z,25.54
2023-01-06T00:09:07.777Z,25.53
2023-01-06T00:10:07.772Z,25.57
2023-01-06T00:11:07.759Z,25.57
2023-01-06T00:12:07.740Z,25.57
2023-01-06T00:13:07.764Z,25.56
2023-01-06T00:14:07.737Z,25.57
2023-01-06T00:15:07.715Z,25.58
2023-01-06T00:16:07.788Z,25.58
2023-01-06T00:17:07.710Z,25.57
2023-01-06T00:18:07.786Z,25.60
2023-01-06T00:19:07.703Z,25.58
2023-01-06T00:20:07.697Z,25.56
2023-01-06T00:21:07.685Z,25.58
2023-01-06T00:22:07.694Z,25.58
2023-01-06T00:23:07.659Z,25.58
2023-01-06T00:24:07.673Z,25.58
2023-01-06T00:25:07.638Z,25.58
2023-01-06T00:26:07.651Z,25.58
2023-01-06T00:27:07.615Z,25.58
2023-01-06T00:28:07.600Z,25.58
2023-01-06T00:29:07.597Z,25.57
2023-01-06T00:30:07.591Z,25.56
2023-01-06T00:31:07.632Z,25.57
2023-01-06T00:32:07.584Z,25.53
2023-01-06T00:33:07.562Z,25.54
2023-01-06T00:34:07.638Z,25.53
2023-01-06T00:35:07.550Z,25.57
2023-01-06T00:36:07.557Z,25.53
2023-01-06T00:37:07.532Z,25.53
2023-01-06T00:38:07.516Z,25.51
2023-01-06T00:39:07.533Z,25.51
2023-01-06T00:40:07.493Z,25.51
2023-01-06T00:41:07.496Z,25.53
2023-01-06T00:42:07.475Z,25.51
2023-01-06T00:43:07.475Z,25.48
2023-01-06T00:44:07.510Z,25.50
2023-01-06T00:45:07.459Z,25.51
2023-01-06T00:46:07.484Z,25.51
2023-01-06T00:47:07.460Z,25.50
2023-01-06T00:48:07.433Z,25.48
2023-01-06T00:49:08.037Z,25.50
2023-01-06T00:50:07.502Z,25.51
2023-01-06T00:51:07.399Z,25.48
2023-01-06T00:52:07.392Z,25.48
2023-01-06T00:53:07.393Z,25.47
2023-01-06T00:54:07.366Z,25.47
2023-01-06T00:55:07.397Z,25.48
2023-01-06T00:56:07.421Z,25.47
2023-01-06T00:57:07.354Z,25.48
2023-01-06T00:58:07.334Z,25.47
2023-01-06T00:59:07.338Z,25.47
2023-01-06T01:00:07.322Z,25.46
2023-01-06T01:01:07.437Z,25.46
2023-01-06T01:02:07.424Z,25.44
2023-01-06T01:03:07.320Z,25.47
2023-01-06T01:04:07.291Z,25.46
2023-01-06T01:05:07.272Z,25.43
2023-01-06T01:06:07.347Z,25.44
2023-01-06T01:07:07.257Z,25.44
2023-01-06T01:08:07.245Z,25.46
2023-01-06T01:09:07.294Z,25.46
2023-01-06T01:10:07.226Z,25.46
2023-01-06T01:11:07.223Z,25.44
2023-01-06T01:12:07.209Z,25.44
2023-01-06T01:13:07.210Z,25.48
2023-01-06T01:14:07.194Z,25.47
2023-01-06T01:15:07.220Z,25.46
2023-01-06T01:16:07.227Z,25.47
2023-01-06T01:17:07.188Z,25.46
2023-01-06T01:18:07.176Z,25.43
2023-01-06T01:19:07.164Z,25.46
2023-01-06T01:20:07.171Z,25.46
2023-01-06T01:21:07.144Z,25.47
2023-01-06T01:22:07.251Z,25.48
2023-01-06T01:23:07.131Z,25.44
2023-01-06T01:24:07.125Z,25.48
2023-01-06T01:25:07.201Z,25.44
2023-01-06T01:26:07.082Z,25.48
2023-01-06T01:27:07.106Z,25.48
2023-01-06T01:28:07.074Z,25.48
2023-01-06T01:29:07.071Z,25.47
2023-01-06T01:30:07.065Z,25.50
2023-01-06T01:31:07.075Z,25.50
2023-01-06T01:32:07.089Z,25.48
2023-01-06T01:33:07.027Z,25.51
2023-01-06T01:34:07.042Z,25.48
2023-01-06T01:35:07.006Z,25.51
2023-01-06T01:36:07.000Z,25.51
2023-01-06T01:37:06.993Z,25.50
2023-01-06T01:38:07.055Z,25.53
2023-01-06T01:39:06.973Z,25.50
2023-01-06T01:40:06.977Z,25.50
2023-01-06T01:41:06.947Z,25.51
2023-01-06T01:42:06.944Z,25.51
2023-01-06T01:43:06.949Z,25.53
2023-01-06T01:44:06.929Z,25.50
2023-01-06T01:45:06.947Z,25.53
2023-01-06T01:46:06.971Z,25.54
2023-01-06T01:47:06.905Z,25.54
2023-01-06T01:48:06.920Z,25.53
2023-01-06T01:49:06.890Z,25.53
2023-01-06T01:50:06.873Z,25.53
2023-01-06T01:51:06.877Z,25.53
2023-01-06T01:52:06.856Z,25.56
2023-01-06T01:53:06.965Z,25.53
2023-01-06T01:54:06.928Z,25.54
2023-01-06T01:55:06.825Z,25.56
2023-01-06T01:56:06.828Z,25.54
2023-01-06T01:57:06.815Z,25.56
2023-01-06T01:58:06.811Z,25.51
2023-01-06T01:59:06.846Z,25.54
2023-01-06T02:00:06.790Z,25.54
2023-01-06T02:01:06.851Z,25.53
2023-01-06T02:02:06.883Z,25.56
2023-01-06T02:03:06.814Z,25.56
2023-01-06T02:04:06.760Z,25.53
2023-01-06T02:05:06.761Z,25.50
2023-01-06T02:06:06.751Z,25.51
2023-01-06T02:07:06.728Z,25.53
2023-01-06T02:08:06.717Z,25.51
2023-01-06T02:09:06.723Z,25.53
2023-01-06T02:10:06.696Z,25.51
2023-01-06T02:11:06.716Z,25.54
2023-01-06T02:12:06.690Z,25.51
2023-01-06T02:13:06.680Z,25.50
2023-01-06T02:14:06.672Z,25.48
2023-01-06T02:15:06.656Z,25.53
2023-01-06T02:16:06.713Z,25.50
2023-01-06T02:17:06.633Z,25.48
2023-01-06T02:18:06.627Z,25.48
2023-01-06T02:19:06.670Z,25.50
2023-01-06T02:20:06.608Z,25.48
2023-01-06T02:21:06.597Z,25.50
2023-01-06T02:22:06.586Z,25.50
2023-01-06T02:23:06.585Z,25.48
2023-01-06T02:24:06.602Z,25.48
2023-01-06T02:25:06.596Z,25.47
2023-01-06T02:26:06.631Z,25.46
2023-01-06T02:27:06.537Z,25.44
2023-01-06T02:28:06.540Z,25.44
2023-01-06T02:29:06.513Z,25.46
2023-01-06T02:30:06.564Z,25.44
2023-01-06T02:31:06.521Z,25.46
2023-01-06T02:32:06.501Z,25.48
2023-01-06T02:33:06.490Z,25.44
2023-01-06T02:34:06.495Z,25.44
2023-01-06T02:35:06.466Z,25.46
2023-01-06T02:36:06.487Z,25.40
2023-01-06T02:37:06.454Z,25.43
2023-01-06T02:38:06.446Z,25.43
2023-01-06T02:39:06.434Z,25.46
2023-01-06T02:40:06.431Z,25.41
2023-01-06T02:41:06.439Z,25.43
2023-01-06T02:42:06.518Z,25.44
2023-01-06T02:43:06.413Z,25.43
2023-01-06T02:44:06.403Z,25.46
2023-01-06T02:45:06.381Z,25.43
2023-01-06T02:46:06.390Z,25.43
2023-01-06T02:47:06.361Z,25.44
2023-01-06T02:48:06.355Z,25.41
2023-01-06T02:49:06.340Z,25.44
2023-01-06T02:50:06.355Z,25.44
2023-01-06T02:51:06.327Z,25.43
2023-01-06T02:52:06.335Z,25.44
2023-01-06T02:53:06.324Z,25.44
2023-01-06T02:54:06.300Z,25.46
2023-01-06T02:55:06.305Z,25.44
2023-01-06T02:56:06.321Z,25.46
2023-01-06T02:57:06.273Z,25.43
2023-01-06T02:58:06.342Z,25.43
2023-01-06T02:59:06.281Z,25.46
2023-01-06T03:00:06.246Z,25.46
2023-01-06T03:01:06.319Z,25.47
2023-01-06T03:02:06.402Z,25.46
2023-01-06T03:03:06.218Z,25.47
2023-01-06T03:04:06.214Z,25.47
2023-01-06T03:05:06.258Z,25.48
2023-01-06T03:06:06.195Z,25.46
2023-01-06T03:07:06.189Z,25.51
2023-01-06T03:08:06.170Z,25.47
2023-01-06T03:09:06.173Z,25.47
2023-01-06T03:10:06.174Z,25.50
2023-01-06T03:11:06.174Z,25.50
2023-01-06T03:12:06.139Z,25.51
2023-01-06T03:13:06.142Z,25.53
2023-01-06T03:14:06.198Z,25.51
2023-01-06T03:15:06.115Z,25.54
2023-01-06T03:16:06.134Z,25.53
2023-01-06T03:17:06.114Z,25.56
2023-01-06T03:18:06.105Z,25.50
2023-01-06T03:19:06.077Z,25.54
2023-01-06T03:20:06.072Z,25.54
2023-01-06T03:21:06.068Z,25.54
2023-01-06T03:22:06.059Z,25.58
2023-01-06T03:23:06.048Z,25.53
2023-01-06T03:24:06.062Z,25.56
2023-01-06T03:25:06.026Z,25.53
2023-01-06T03:26:06.016Z,25.54
2023-01-06T03:27:06.009Z,25.54
2023-01-06T03:28:06.036Z,25.56
2023-01-06T03:29:05.982Z,25.56
2023-01-06T03:30:06.045Z,25.57
2023-01-06T03:31:06.028Z,25.56
2023-01-06T03:32:05.966Z,25.57
2023-01-06T03:33:07.709Z,25.57
2023-01-06T03:34:06.079Z,25.57
2023-01-06T03:35:06.060Z,25.56
2023-01-06T03:36:06.026Z,25.54
2023-01-06T03:37:06.039Z,25.57
2023-01-06T03:38:06.009Z,25.56
2023-01-06T03:39:06.021Z,25.54
2023-01-06T03:40:06.002Z,25.53
2023-01-06T03:41:06.026Z,25.56
2023-01-06T03:42:06.072Z,25.57
2023-01-06T03:43:06.137Z,25.53
2023-01-06T03:44:06.155Z,25.56
2023-01-06T03:45:06.213Z,25.53
2023-01-06T03:46:06.339Z,25.53
2023-01-06T03:47:06.312Z,25.53
2023-01-06T03:48:06.397Z,25.53
2023-01-06T03:49:06.420Z,25.51
2023-01-06T03:50:06.455Z,25.51
2023-01-06T03:51:06.515Z,25.51
2023-01-06T03:52:06.564Z,25.51
2023-01-06T03:53:06.641Z,25.50
2023-01-06T03:54:06.692Z,25.50
2023-01-06T03:55:06.731Z,25.48
2023-01-06T03:56:06.769Z,25.50
2023-01-06T03:57:06.810Z,25.48
2023-01-06T03:58:06.870Z,25.51
2023-01-06T03:59:06.932Z,25.50
2023-01-06T04:00:06.972Z,25.50
2023-01-06T04:01:07.082Z,25.48
2023-01-06T04:02:07.184Z,25.46
2023-01-06T04:03:07.113Z,25.46
2023-01-06T04:04:07.258Z,25.44
2023-01-06T04:05:07.217Z,25.44
2023-01-06T04:06:07.261Z,25.46
2023-01-06T04:07:07.313Z,25.44
2023-01-06T04:08:07.368Z,25.44
2023-01-06T04:09:07.459Z,25.44
2023-01-06T04:10:07.470Z,25.44
2023-01-06T04:11:07.510Z,25.43
2023-01-06T04:12:07.555Z,25.43
2023-01-06T04:13:07.621Z,25.40
2023-01-06T04:14:07.669Z,25.41
2023-01-06T04:15:07.735Z,25.43
2023-01-06T04:16:07.849Z,25.43
2023-01-06T04:17:07.814Z,25.41
2023-01-06T04:18:07.966Z,25.43
2023-01-06T04:19:07.928Z,25.41
2023-01-06T04:20:07.961Z,25.43
2023-01-06T04:21:08.042Z,25.43
2023-01-06T04:22:08.072Z,25.41
2023-01-06T04:23:08.140Z,25.43
2023-01-06T04:24:08.170Z,25.40
2023-01-06T04:25:08.233Z,25.41
2023-01-06T04:26:08.274Z,25.43
2023-01-06T04:27:08.312Z,25.43
2023-01-06T04:28:08.375Z,25.46
2023-01-06T04:29:08.414Z,25.44
2023-01-06T04:30:08.491Z,25.46
2023-01-06T04:31:08.598Z,25.44
2023-01-06T04:32:08.567Z,25.46
2023-01-06T04:33:08.616Z,25.46
2023-01-06T04:34:08.735Z,25.48
2023-01-06T04:35:08.735Z,25.46
2023-01-06T04:36:08.764Z,25.48
2023-01-06T04:37:08.812Z,25.50
2023-01-06T04:38:08.879Z,25.50
2023-01-06T04:39:08.919Z,25.50
2023-01-06T04:40:08.974Z,25.51
2023-01-06T04:41:09.027Z,25.53
2023-01-06T04:42:09.061Z,25.51
2023-01-06T04:43:09.113Z,25.50
2023-01-06T04:44:09.177Z,25.53
2023-01-06T04:45:09.225Z,25.53
2023-01-06T04:46:09.323Z,25.57
2023-01-06T04:47:09.339Z,25.53
2023-01-06T04:48:09.358Z,25.53
2023-01-06T04:49:09.420Z,25.54
2023-01-06T04:50:09.573Z,25.57
2023-01-06T04:51:09.532Z,25.57
2023-01-06T04:52:09.567Z,25.58
2023-01-06T04:53:09.621Z,25.56
2023-01-06T04:54:09.665Z,25.58
2023-01-06T04:55:09.724Z,25.57
2023-01-06T04:56:09.764Z,25.60
2023-01-06T04:57:09.814Z,25.56
2023-01-06T04:58:09.871Z,25.56
2023-01-06T04:59:09.946Z,25.56
2023-01-06T05:00:09.971Z,25.56
2023-01-06T05:01:10.070Z,25.60
2023-01-06T05:02:10.059Z,25.56
2023-01-06T05:03:10.141Z,25.57
2023-01-06T05:04:10.244Z,25.58
2023-01-06T05:05:10.226Z,25.58
2023-01-06T05:06:10.420Z,25.57
2023-01-06T05:07:10.334Z,25.58
2023-01-06T05:08:10.367Z,25.57
2023-01-06T05:09:10.438Z,25.56
2023-01-06T05:10:10.468Z,25.56
2023-01-06T05:11:10.520Z,25.56
2023-01-06T05:12:10.566Z,25.54
2023-01-06T05:13:10.639Z,25.58
2023-01-06T05:14:10.668Z,25.54
2023-01-06T05:15:10.774Z,25.56
2023-01-06T05:16:10.800Z,25.54
2023-01-06T05:17:10.826Z,25.53
2023-01-06T05:18:10.875Z,25.50
2023-01-06T05:19:10.913Z,25.53
2023-01-06T05:20:10.979Z,25.51
2023-01-06T05:21:11.044Z,25.51
2023-01-06T05:22:11.138Z,25.50
2023-01-06T05:23:11.121Z,25.53
2023-01-06T05:24:11.301Z,25.50
2023-01-06T05:25:11.219Z,25.47
2023-01-06T05:26:11.411Z,25.50
2023-01-06T05:27:11.317Z,25.44
2023-01-06T05:28:11.419Z,25.47
2023-01-06T05:29:11.416Z,25.47
2023-01-06T05:30:11.552Z,25.47
2023-01-06T05:31:11.523Z,25.47
2023-01-06T05:32:11.709Z,25.47
2023-01-06T05:33:11.608Z,25.44
2023-01-06T05:34:11.703Z,25.44
2023-01-06T05:35:11.713Z,25.43
2023-01-06T05:36:11.798Z,25.43
2023-01-06T05:37:11.827Z,25.43
2023-01-06T05:38:11.993Z,25.44
2023-01-06T05:39:11.905Z,25.44
2023-01-06T05:40:12.017Z,25.41
2023-01-06T05:41:12.061Z,25.40
2023-01-06T05:42:12.126Z,25.41
2023-01-06T05:43:12.111Z,25.40
2023-01-06T05:44:12.192Z,25.44
2023-01-06T05:45:12.209Z,25.44
2023-01-06T05:46:12.385Z,25.40
2023-01-06T05:47:12.317Z,25.40
2023-01-06T05:48:12.385Z,25.40
2023-01-06T05:49:12.438Z,25.40
2023-01-06T05:50:12.504Z,25.40
2023-01-06T05:51:12.512Z,25.43
2023-01-06T05:52:12.656Z,25.40
2023-01-06T05:53:12.624Z,25.39
2023-01-06T05:54:12.765Z,25.39
2023-01-06T05:55:12.735Z,25.39
2023-01-06T05:56:12.757Z,25.39
2023-01-06T05:57:12.820Z,25.40
2023-01-06T05:58:12.862Z,25.41
2023-01-06T05:59:12.916Z,25.41
2023-01-06T06:00:12.990Z,25.39
2023-01-06T06:01:14.354Z,25.39
2023-01-06T06:02:13.095Z,25.40
2023-01-06T06:03:12.994Z,25.39
2023-01-06T06:04:13.036Z,25.40
2023-01-06T06:05:13.070Z,25.40
2023-01-06T06:06:13.124Z,25.41
2023-01-06T06:07:13.199Z,25.41
2023-01-06T06:08:13.213Z,25.41
2023-01-06T06:09:13.273Z,25.44
2023-01-06T06:10:13.396Z,25.43
2023-01-06T06:11:13.396Z,25.44
2023-01-06T06:12:13.419Z,25.46
2023-01-06T06:13:13.495Z,25.44
2023-01-06T06:14:14.863Z,25.47
2023-01-06T06:15:13.515Z,25.48
2023-01-06T06:16:13.561Z,25.48
2023-01-06T06:17:13.596Z,25.48
2023-01-06T06:18:13.659Z,25.50
2023-01-06T06:19:13.708Z,25.50
2023-01-06T06:20:13.742Z,25.51
2023-01-06T06:21:13.798Z,25.51
2023-01-06T06:22:13.847Z,25.51
2023-01-06T06:23:13.909Z,25.51
2023-01-06T06:24:13.973Z,25.51
2023-01-06T06:25:13.990Z,25.54
2023-01-06T06:26:14.116Z,25.53
2023-01-06T06:27:14.113Z,25.54
2023-01-06T06:28:14.147Z,25.56
2023-01-06T06:29:14.189Z,25.56
2023-01-06T06:30:14.265Z,25.54
2023-01-06T06:31:14.344Z,25.54
2023-01-06T06:32:14.360Z,25.56
2023-01-06T06:33:14.399Z,25.57
2023-01-06T06:34:14.509Z,25.58
2023-01-06T06:35:14.501Z,25.56
2023-01-06T06:36:14.544Z,25.54
2023-01-06T06:37:14.589Z,25.56
2023-01-06T06:38:14.643Z,25.57
2023-01-06T06:39:14.701Z,25.58
2023-01-06T06:40:14.757Z,25.56
2023-01-06T06:41:14.826Z,25.54
2023-01-06T06:42:14.917Z,25.53
2023-01-06T06:43:14.894Z,25.53
2023-01-06T06:44:14.950Z,25.53
2023-01-06T06:45:14.998Z,25.53
2023-01-06T06:46:15.056Z,25.51
2023-01-06T06:47:15.114Z,25.51
2023-01-06T06:48:15.147Z,25.51
2023-01-06T06:49:15.204Z,25.50
2023-01-06T06:50:15.245Z,25.51
2023-01-06T06:51:15.287Z,25.50
2023-01-06T06:52:15.351Z,25.50
2023-01-06T06:53:15.422Z,25.51
2023-01-06T06:54:15.444Z,25.48
2023-01-06T06:55:15.508Z,25.48
2023-01-06T06:56:15.563Z,25.48
2023-01-06T06:57:15.584Z,25.48
2023-01-06T06:58:16.240Z,25.47
2023-01-06T06:59:15.635Z,25.48
2023-01-06T07:00:15.627Z,25.47
2023-01-06T07:01:15.768Z,25.47
2023-01-06T07:02:15.742Z,25.47
2023-01-06T07:03:15.612Z,25.44
2023-01-06T07:04:15.633Z,25.46
2023-01-06T07:05:15.593Z,25.44
2023-01-06T07:06:15.616Z,25.46
2023-01-06T07:07:15.676Z,25.46
2023-01-06T07:08:15.735Z,25.46
2023-01-06T07:09:15.762Z,25.44
2023-01-06T07:10:15.825Z,25.44
2023-01-06T07:11:15.978Z,25.40
2023-01-06T07:12:15.925Z,25.43
2023-01-06T07:13:15.965Z,25.43
2023-01-06T07:14:16.094Z,25.44
2023-01-06T07:15:16.073Z,25.43
2023-01-06T07:16:16.313Z,25.41
2023-01-06T07:17:16.160Z,25.41
2023-01-06T07:18:16.219Z,25.41
2023-01-06T07:19:16.320Z,25.39
2023-01-06T07:20:16.317Z,25.41
2023-01-06T07:21:16.376Z,25.40
2023-01-06T07:22:16.417Z,25.39
2023-01-06T07:23:16.473Z,25.40
2023-01-06T07:24:16.546Z,25.44
2023-01-06T07:25:16.567Z,25.41
2023-01-06T07:26:16.610Z,25.40
2023-01-06T07:27:16.668Z,25.40
2023-01-06T07:28:16.727Z,25.39
2023-01-06T07:29:16.777Z,25.39
2023-01-06T07:30:16.899Z,25.40
2023-01-06T07:31:16.874Z,25.41
2023-01-06T07:32:16.913Z,25.41
2023-01-06T07:33:16.961Z,25.44
2023-01-06T07:34:17.020Z,25.43
2023-01-06T07:35:17.081Z,25.43
2023-01-06T07:36:17.134Z,25.43
2023-01-06T07:37:17.241Z,25.43
2023-01-06T07:38:17.206Z,25.46
2023-01-06T07:39:17.269Z,25.43
2023-01-06T07:40:17.338Z,25.43
2023-01-06T07:41:17.438Z,25.46
2023-01-06T07:42:17.419Z,25.44
2023-01-06T07:43:17.540Z,25.44
2023-01-06T07:44:18.075Z,25.47
2023-01-06T07:45:17.521Z,25.46
2023-01-06T07:46:17.671Z,25.47
2023-01-06T07:47:17.492Z,25.47
2023-01-06T07:48:17.491Z,25.53
2023-01-06T07:49:17.477Z,25.58
2023-01-06T07:50:17.466Z,25.64
2023-01-06T07:51:17.500Z,25.67
2023-01-06T07:52:17.572Z,25.71
2023-01-06T07:53:17.591Z,25.71
2023-01-06T07:54:17.640Z,25.73
2023-01-06T07:55:17.692Z,25.67
2023-01-06T07:56:17.754Z,25.67
2023-01-06T07:57:18.152Z,25.68
2023-01-06T07:58:17.855Z,25.68
2023-01-06T07:59:17.901Z,25.63
2023-01-06T08:00:17.963Z,25.60
2023-01-06T08:01:18.146Z,25.57
2023-01-06T08:02:18.107Z,25.58
2023-01-06T08:03:18.150Z,25.57
2023-01-06T08:04:18.197Z,25.54
2023-01-06T08:05:18.207Z,25.53
2023-01-06T08:06:18.263Z,25.54
2023-01-06T08:07:18.313Z,25.50
2023-01-06T08:08:18.369Z,25.53
2023-01-06T08:09:18.388Z,25.51
2023-01-06T08:10:18.446Z,25.50
2023-01-06T08:11:18.499Z,25.51
2023-01-06T08:12:18.579Z,25.51
2023-01-06T08:13:20.445Z,25.48
2023-01-06T08:14:18.590Z,25.47
2023-01-06T08:15:18.578Z,25.48
2023-01-06T08:16:18.647Z,25.48
2023-01-06T08:17:18.561Z,25.50
2023-01-06T08:18:18.623Z,25.50
2023-01-06T08:19:18.546Z,25.48
2023-01-06T08:20:18.536Z,25.48
2023-01-06T08:21:18.557Z,25.47
2023-01-06T08:22:18.636Z,25.46
2023-01-06T08:23:18.648Z,25.46
2023-01-06T08:24:18.715Z,25.47
2023-01-06T08:25:18.740Z,25.47
2023-01-06T08:26:18.808Z,25.47
2023-01-06T08:27:18.863Z,25.47
2023-01-06T08:28:18.922Z,25.46
2023-01-06T08:29:18.948Z,25.46
2023-01-06T08:30:19.031Z,25.43
2023-01-06T08:31:19.089Z,25.46
2023-01-06T08:32:19.098Z,25.46
2023-01-06T08:33:19.150Z,25.47
2023-01-06T08:34:19.197Z,25.46
2023-01-06T08:35:19.259Z,25.44
2023-01-06T08:36:19.321Z,25.47
2023-01-06T08:37:19.349Z,25.44
2023-01-06T08:38:19.395Z,25.44
2023-01-06T08:39:19.474Z,25.47
2023-01-06T08:40:19.532Z,25.47
2023-01-06T08:41:19.548Z,25.50
2023-01-06T08:42:19.625Z,25.48
2023-01-06T08:43:19.657Z,25.47
2023-01-06T08:44:19.692Z,25.48
2023-01-06T08:45:19.748Z,25.50
2023-01-06T08:46:19.822Z,25.50
2023-01-06T08:47:19.864Z,25.53
2023-01-06T08:48:19.922Z,25.50
2023-01-06T08:49:19.959Z,25.56
2023-01-06T08:50:20.098Z,25.50
2023-01-06T08:51:20.080Z,25.34
2023-01-06T08:52:20.155Z,25.51
2023-01-06T08:53:20.163Z,25.60
2023-01-06T08:54:20.200Z,25.68
2023-01-06T08:55:20.260Z,25.68
2023-01-06T08:56:20.309Z,25.73
2023-01-06T08:57:20.395Z,25.70
2023-01-06T08:58:20.392Z,25.71
2023-01-06T08:59:20.468Z,25.70
2023-01-06T09:00:20.509Z,25.74
2023-01-06T09:01:20.653Z,25.81
2023-01-06T09:02:20.652Z,25.92
2023-01-06T09:03:20.655Z,26.03
2023-01-06T09:04:20.726Z,26.09
2023-01-06T09:05:20.854Z,26.15
2023-01-06T09:06:20.870Z,26.26
2023-01-06T09:07:20.927Z,26.32
2023-01-06T09:08:20.928Z,26.43
2023-01-06T09:09:20.975Z,26.47
2023-01-06T09:10:21.051Z,26.55
2023-01-06T09:11:21.061Z,26.58
2023-01-06T09:12:21.148Z,26.55
2023-01-06T09:13:21.155Z,26.58
2023-01-06T09:14:21.229Z,26.60
2023-01-06T09:15:21.247Z,26.57
2023-01-06T09:16:21.404Z,26.55
2023-01-06T09:17:21.396Z,26.53
2023-01-06T09:18:21.408Z,26.47
2023-01-06T09:19:21.489Z,26.37
2023-01-06T09:20:21.519Z,26.30
2023-01-06T09:21:21.572Z,26.20
2023-01-06T09:22:21.657Z,26.18
2023-01-06T09:23:21.676Z,26.15
2023-01-06T09:24:21.714Z,26.05
2023-01-06T09:25:21.808Z,26.01
2023-01-06T09:26:21.862Z,25.96
2023-01-06T09:27:23.448Z,25.95
2023-01-06T09:28:21.857Z,25.92
2023-01-06T09:29:21.867Z,25.95
2023-01-06T09:30:21.856Z,25.96
2023-01-06T09:31:21.931Z,25.93
2023-01-06T09:32:21.826Z,25.91
2023-01-06T09:33:21.811Z,25.92
2023-01-06T09:34:21.892Z,25.91
2023-01-06T09:35:21.825Z,25.92
2023-01-06T09:36:21.860Z,25.91
2023-01-06T09:37:21.958Z,25.89
2023-01-06T09:38:22.041Z,25.91
2023-01-06T09:39:22.020Z,25.91
2023-01-06T09:40:22.124Z,25.92
2023-01-06T09:41:22.139Z,25.91
2023-01-06T09:42:22.155Z,25.87
2023-01-06T09:43:22.213Z,25.85
2023-01-06T09:44:23.960Z,25.85
2023-01-06T09:45:22.305Z,25.85
2023-01-06T09:46:22.421Z,25.87
2023-01-06T09:47:22.459Z,25.84
2023-01-06T09:48:22.470Z,25.82
2023-01-06T09:49:22.517Z,25.81
2023-01-06T09:50:22.617Z,25.84
2023-01-06T09:51:23.709Z,25.81
2023-01-06T09:52:22.595Z,25.74
2023-01-06T09:53:22.597Z,25.77
2023-01-06T09:54:22.670Z,25.82
2023-01-06T09:55:22.562Z,25.85
2023-01-06T09:56:22.568Z,25.84
2023-01-06T09:57:22.632Z,25.82
2023-01-06T09:58:22.670Z,25.85
2023-01-06T09:59:22.694Z,25.84
2023-01-06T10:00:22.813Z,25.84
2023-01-06T10:01:22.884Z,25.84
2023-01-06T10:02:22.917Z,25.84
2023-01-06T10:03:22.941Z,25.82
2023-01-06T10:04:22.941Z,25.84
2023-01-06T10:05:23.011Z,25.84
2023-01-06T10:06:23.111Z,25.85
2023-01-06T10:07:23.100Z,25.84
2023-01-06T10:08:23.151Z,25.84
2023-01-06T10:09:23.213Z,25.87
2023-01-06T10:10:23.451Z,25.84
2023-01-06T10:11:23.328Z,25.87
2023-01-06T10:12:23.368Z,25.89
2023-01-06T10:13:23.400Z,25.91
2023-01-06T10:14:23.471Z,25.92
2023-01-06T10:15:23.513Z,25.91
2023-01-06T10:16:23.562Z,25.92
2023-01-06T10:17:23.598Z,25.93
2023-01-06T10:18:23.660Z,25.95
2023-01-06T10:19:23.706Z,25.95
2023-01-06T10:20:23.766Z,25.98
2023-01-06T10:21:23.805Z,25.98
2023-01-06T10:22:23.848Z,25.96
2023-01-06T10:23:23.915Z,25.98
2023-01-06T10:24:24.014Z,25.98
2023-01-06T10:25:24.003Z,26.01
2023-01-06T10:26:24.426Z,26.01
2023-01-06T10:27:24.528Z,25.99
2023-01-06T10:28:24.031Z,26.02
2023-01-06T10:29:24.025Z,26.03
2023-01-06T10:30:27.968Z,26.02
2023-01-06T10:31:25.101Z,26.08
2023-01-06T10:32:23.993Z,26.09
2023-01-06T10:33:24.004Z,26.08
2023-01-06T10:34:24.026Z,26.10
2023-01-06T10:35:23.978Z,26.13
2023-01-06T10:36:23.966Z,26.16
2023-01-06T10:37:23.959Z,26.15
2023-01-06T10:38:23.969Z,26.18
2023-01-06T10:39:23.940Z,26.19
2023-01-06T10:40:23.925Z,26.20
2023-01-06T10:41:23.940Z,26.19
2023-01-06T10:42:23.974Z,26.25
2023-01-06T10:43:23.933Z,26.22
2023-01-06T10:44:23.931Z,26.22
2023-01-06T10:45:23.889Z,26.23
2023-01-06T10:46:23.908Z,26.26
2023-01-06T10:47:23.878Z,26.26
2023-01-06T10:48:23.861Z,26.25
2023-01-06T10:49:23.847Z,26.26
2023-01-06T10:50:23.896Z,26.26
2023-01-06T10:51:23.828Z,26.27
2023-01-06T10:52:23.842Z,26.23
2023-01-06T10:53:23.815Z,26.29
2023-01-06T10:54:23.800Z,26.27
2023-01-06T10:55:23.798Z,26.27
2023-01-06T10:56:23.832Z,26.29
2023-01-06T10:57:23.779Z,26.29
2023-01-06T10:58:23.872Z,26.27
2023-01-06T10:59:23.764Z,26.29
2023-01-06T11:00:23.752Z,26.33
2023-01-06T11:01:23.854Z,26.29
2023-01-06T11:02:23.919Z,26.30
2023-01-06T11:03:34.693Z,26.27
2023-01-06T11:04:24.714Z,26.30
2023-01-06T11:05:23.701Z,26.29
2023-01-06T11:06:23.716Z,26.32
2023-01-06T11:07:23.705Z,26.30
2023-01-06T11:08:23.695Z,26.29
2023-01-06T11:09:23.662Z,26.32
2023-01-06T11:10:23.658Z,26.32
2023-01-06T11:11:28.146Z,26.33
2023-01-06T11:12:24.638Z,26.35
2023-01-06T11:13:23.637Z,26.37
2023-01-06T11:14:23.713Z,26.35
2023-01-06T11:15:23.616Z,26.36
2023-01-06T11:16:23.640Z,26.37
2023-01-06T11:17:23.598Z,26.39
2023-01-06T11:18:23.628Z,26.39
2023-01-06T11:19:23.589Z,26.35
2023-01-06T11:20:23.574Z,26.37
2023-01-06T11:21:23.571Z,26.39
2023-01-06T11:22:23.552Z,26.42
2023-01-06T11:23:23.537Z,26.40
2023-01-06T11:24:23.531Z,26.40
2023-01-06T11:25:23.537Z,26.39
2023-01-06T11:26:23.527Z,26.42
2023-01-06T11:27:23.509Z,26.42
2023-01-06T11:28:23.504Z,26.43
2023-01-06T11:29:23.487Z,26.43
2023-01-06T11:30:23.580Z,26.42
2023-01-06T11:31:23.548Z,26.42
2023-01-06T11:32:23.460Z,26.43
2023-01-06T11:33:23.446Z,26.40
2023-01-06T11:34:23.434Z,26.43
2023-01-06T11:35:23.469Z,26.43
2023-01-06T11:36:23.467Z,26.40
2023-01-06T11:37:23.424Z,26.43
2023-01-06T11:38:23.418Z,26.43
2023-01-06T11:39:23.401Z,26.43
2023-01-06T11:40:23.388Z,26.42
2023-01-06T11:41:23.389Z,26.44
2023-01-06T11:42:23.402Z,26.42
2023-01-06T11:43:23.365Z,26.47
2023-01-06T11:44:23.368Z,26.46
2023-01-06T11:45:23.337Z,26.42
2023-01-06T11:46:23.455Z,26.46
2023-01-06T11:47:23.361Z,26.44
2023-01-06T11:48:23.348Z,26.43
2023-01-06T11:49:23.319Z,26.46
2023-01-06T11:50:23.309Z,26.44
2023-01-06T11:51:23.294Z,26.44
2023-01-06T11:52:23.311Z,26.47
2023-01-06T11:53:23.281Z,26.48
2023-01-06T11:54:23.274Z,26.50
2023-01-06T11:55:23.247Z,26.48
2023-01-06T11:56:23.255Z,26.47
2023-01-06T11:57:23.248Z,26.50
2023-01-06T11:58:23.254Z,26.48
2023-01-06T11:59:23.240Z,26.47
2023-01-06T12:00:23.221Z,26.47
2023-01-06T12:01:23.222Z,26.48
2023-01-06T12:02:23.320Z,26.44
2023-01-06T12:03:23.243Z,26.53
2023-01-06T12:04:24.252Z,26.50
2023-01-06T12:05:23.202Z,26.51
2023-01-06T12:06:23.172Z,26.47
2023-01-06T12:07:23.157Z,26.43
2023-01-06T12:08:23.151Z,26.37
2023-01-06T12:09:23.180Z,26.25
2023-01-06T12:10:23.154Z,26.22
2023-01-06T12:11:23.109Z,26.12
2023-01-06T12:12:23.098Z,26.13
2023-01-06T12:13:23.105Z,26.13
2023-01-06T12:14:28.803Z,26.16
2023-01-06T12:15:24.097Z,26.12
2023-01-06T12:16:23.258Z,26.12
2023-01-06T12:17:23.213Z,26.16
2023-01-06T12:18:23.128Z,26.13
2023-01-06T12:19:23.047Z,26.12
2023-01-06T12:20:23.272Z,26.12
2023-01-06T12:21:23.023Z,26.16
2023-01-06T12:22:23.043Z,26.18
2023-01-06T12:23:23.008Z,26.20
2023-01-06T12:24:22.993Z,26.18
2023-01-06T12:25:22.988Z,26.18
2023-01-06T12:26:23.944Z,26.02
2023-01-06T12:27:22.972Z,26.03
2023-01-06T12:28:22.996Z,25.92
2023-01-06T12:29:22.946Z,25.85
2023-01-06T12:30:22.949Z,25.81
2023-01-06T12:31:22.940Z,25.77
2023-01-06T12:32:22.923Z,25.74
2023-01-06T12:33:22.940Z,25.68
2023-01-06T12:34:22.988Z,25.70
2023-01-06T12:35:22.901Z,25.68
2023-01-06T12:36:22.894Z,25.67
2023-01-06T12:37:22.885Z,25.70
2023-01-06T12:38:22.881Z,25.67
2023-01-06T12:39:22.858Z,25.71
2023-01-06T12:40:22.860Z,25.70
2023-01-06T12:41:22.840Z,25.82
2023-01-06T12:42:22.833Z,25.98
2023-01-06T12:43:22.846Z,26.09
2023-01-06T12:44:22.849Z,26.22
2023-01-06T12:45:22.880Z,26.26
2023-01-06T12:46:22.842Z,26.35
2023-01-06T12:47:22.799Z,26.39
2023-01-06T12:48:22.787Z,26.37
2023-01-06T12:49:22.795Z,26.46
2023-01-06T12:50:22.840Z,26.50
2023-01-06T12:51:22.752Z,26.53
2023-01-06T12:52:22.751Z,26.54